createdAt,value
2022-10-22T00:00:16.941Z,99423.78
2022-10-22T00:00:48.405Z,99421.53
2022-10-22T00:01:19.858Z,99423.94
2022-10-22T00:01:51.251Z,99426.22
2022-10-22T00:02:22.755Z,99429.28
2022-10-22T00:02:54.239Z,99429.91
2022-10-22T00:03:25.697Z,99436.50
2022-10-22T00:03:57.142Z,99425.56
2022-10-22T00:04:32.939Z,99432.34
2022-10-22T00:05:06.798Z,99430.22
2022-10-22T00:05:38.244Z,99430.56
2022-10-22T00:06:09.725Z,99432.97
2022-10-22T00:06:41.150Z,99432.84
2022-10-22T00:07:12.612Z,99433.31
2022-10-22T00:07:44.298Z,99435.25
2022-10-22T00:08:15.750Z,99430.91
2022-10-22T00:08:47.197Z,99429.94
2022-10-22T00:09:18.822Z,99434.75
2022-10-22T00:09:50.417Z,99430.25
2022-10-22T00:10:21.883Z,99438.31
2022-10-22T00:10:53.350Z,99435.88
2022-10-22T00:11:24.962Z,99438.78
2022-10-22T00:11:56.425Z,99435.75
2022-10-22T00:12:28.015Z,99436.22
2022-10-22T00:12:59.467Z,99436.38
2022-10-22T00:13:30.893Z,99438.31
2022-10-22T00:14:02.360Z,99439.44
2022-10-22T00:14:34.033Z,99443.81
2022-10-22T00:15:05.508Z,99438.31
2022-10-22T00:15:36.924Z,99445.25
2022-10-22T00:16:09.023Z,99440.41
2022-10-22T00:16:40.439Z,99440.72
2022-10-22T00:17:11.921Z,99441.03
2022-10-22T00:17:43.541Z,99449.91
2022-10-22T00:18:15.044Z,99446.38
2022-10-22T00:18:46.680Z,99444.75
2022-10-22T00:19:18.199Z,99447.81
2022-10-22T00:19:49.643Z,99452.16
2022-10-22T00:20:21.067Z,99451.69
2022-10-22T00:20:52.563Z,99450.56
2022-10-22T00:21:24.188Z,99446.69
2022-10-22T00:21:55.625Z,99450.06
2022-10-22T00:22:27.064Z,99452.00
2022-10-22T00:22:58.558Z,99443.94
2022-10-22T00:23:29.933Z,99444.44
2022-10-22T00:24:01.431Z,99440.09
2022-10-22T00:24:32.840Z,99442.81
2022-10-22T00:25:04.283Z,99443.94
2022-10-22T00:25:35.775Z,99444.28
2022-10-22T00:26:07.181Z,99447.47
2022-10-22T00:26:38.623Z,99444.41
2022-10-22T00:27:09.999Z,99444.41
2022-10-22T00:27:41.692Z,99455.06
2022-10-22T00:28:13.420Z,99448.78
2022-10-22T00:28:44.841Z,99451.03
2022-10-22T00:29:16.285Z,99452.63
2022-10-22T00:29:47.720Z,99455.34
2022-10-22T00:30:19.126Z,99451.81
2022-10-22T00:30:50.578Z,99454.09
2022-10-22T00:31:21.980Z,99452.47
2022-10-22T00:31:53.366Z,99451.50
2022-10-22T00:32:24.825Z,99444.91
2022-10-22T00:32:56.256Z,99447.31
2022-10-22T00:33:27.792Z,99443.94
2022-10-22T00:33:59.206Z,99446.19
2022-10-22T00:34:30.788Z,99450.53
2022-10-22T00:35:02.185Z,99447.16
2022-10-22T00:35:33.688Z,99451.97
2022-10-22T00:36:05.132Z,99448.44
2022-10-22T00:36:36.616Z,99456.16
2022-10-22T00:37:08.018Z,99444.09
2022-10-22T00:37:39.950Z,99446.03
2022-10-22T00:38:11.429Z,99446.03
2022-10-22T00:38:42.915Z,99442.31
2022-10-22T00:39:14.316Z,99446.97
2022-10-22T00:39:45.733Z,99446.16
2022-10-22T00:40:17.145Z,99445.03
2022-10-22T00:40:48.509Z,99445.34
2022-10-22T00:41:19.960Z,99447.78
2022-10-22T00:41:51.426Z,99448.28
2022-10-22T00:42:22.844Z,99451.16
2022-10-22T00:42:54.314Z,99449.22
2022-10-22T00:43:25.699Z,99446.34
2022-10-22T00:43:57.072Z,99448.59
2022-10-22T00:44:28.501Z,99442.31
2022-10-22T00:44:59.956Z,99445.69
2022-10-22T00:45:31.403Z,99442.16
2022-10-22T00:46:02.794Z,99443.91
2022-10-22T00:46:34.264Z,99442.63
2022-10-22T00:47:05.658Z,99442.31
2022-10-22T00:47:37.078Z,99448.28
2022-10-22T00:48:08.529Z,99445.03
2022-10-22T00:48:39.929Z,99455.19
2022-10-22T00:49:11.360Z,99458.56
2022-10-22T00:49:42.785Z,99459.38
2022-10-22T00:50:14.180Z,99451.16
2022-10-22T00:50:45.594Z,99453.25
2022-10-22T00:51:17.178Z,99457.91
2022-10-22T00:51:48.716Z,99448.28
2022-10-22T00:52:20.110Z,99449.22
2022-10-22T00:52:51.699Z,99452.13
2022-10-22T00:53:23.208Z,99448.91
2022-10-22T00:53:54.691Z,99446.81
2022-10-22T00:54:26.115Z,99449.53
2022-10-22T00:54:57.520Z,99447.44
2022-10-22T00:55:28.998Z,99448.06
2022-10-22T00:56:00.449Z,99445.81
2022-10-22T00:56:31.970Z,99447.44
2022-10-22T00:57:03.503Z,99442.78
2022-10-22T00:57:35.036Z,99439.22
2022-10-22T00:58:06.444Z,99440.84
2022-10-22T00:58:37.872Z,99440.53
2022-10-22T00:59:45.605Z,99440.03
2022-10-22T01:00:17.006Z,99445.50
2022-10-22T01:00:48.497Z,99448.41
2022-10-22T01:01:20.101Z,99444.06
2022-10-22T01:01:51.694Z,99444.06
2022-10-22T01:02:23.203Z,99447.28
2022-10-22T01:02:54.610Z,99447.13
2022-10-22T01:03:26.144Z,99444.88
2022-10-22T01:03:57.527Z,99447.94
2022-10-22T01:04:28.958Z,99446.31
2022-10-22T01:05:00.385Z,99448.56
2022-10-22T01:05:31.802Z,99443.91
2022-10-22T01:06:03.222Z,99443.91
2022-10-22T01:06:34.714Z,99439.22
2022-10-22T01:07:06.106Z,99442.28
2022-10-22T01:07:37.607Z,99444.69
2022-10-22T01:08:09.053Z,99439.88
2022-10-22T01:08:40.447Z,99441.75
2022-10-22T01:09:11.883Z,99436.59
2022-10-22T01:09:43.273Z,99440.47
2022-10-22T01:10:14.705Z,99439.88
2022-10-22T01:10:46.143Z,99438.22
2022-10-22T01:11:18.114Z,99440.66
2022-10-22T01:11:49.558Z,99443.91
2022-10-22T01:12:21.016Z,99442.28
2022-10-22T01:12:52.466Z,99437.13
2022-10-22T01:13:23.978Z,99443.25
2022-10-22T01:13:55.447Z,99439.88
2022-10-22T01:14:26.853Z,99442.28
2022-10-22T01:14:58.225Z,99438.75
2022-10-22T01:15:29.649Z,99441.16
2022-10-22T01:16:01.072Z,99441.16
2022-10-22T01:16:32.505Z,99437.63
2022-10-22T01:17:03.911Z,99439.53
2022-10-22T01:17:35.344Z,99441.47
2022-10-22T01:18:06.777Z,99443.41
2022-10-22T01:18:38.208Z,99438.22
2022-10-22T01:19:09.630Z,99437.72
2022-10-22T01:19:41.032Z,99439.66
2022-10-22T01:20:12.472Z,99443.19
2022-10-22T01:20:43.896Z,99431.34
2022-10-22T01:21:15.399Z,99432.56
2022-10-22T01:21:46.864Z,99435.00
2022-10-22T01:22:18.225Z,99446.44
2022-10-22T01:22:49.632Z,99438.84
2022-10-22T01:23:21.021Z,99432.25
2022-10-22T01:23:52.492Z,99427.28
2022-10-22T01:24:23.883Z,99430.63
2022-10-22T01:24:55.265Z,99430.16
2022-10-22T01:25:26.654Z,99430.63
2022-10-22T01:25:58.066Z,99429.03
2022-10-22T01:26:29.508Z,99428.41
2022-10-22T01:27:01.127Z,99425.16
2022-10-22T01:27:32.565Z,99427.28
2022-10-22T01:28:04.044Z,99427.41
2022-10-22T01:28:35.436Z,99426.59
2022-10-22T01:29:06.840Z,99424.38
2022-10-22T01:29:38.242Z,99427.28
2022-10-22T01:30:09.696Z,99425.50
2022-10-22T01:30:41.101Z,99427.91
2022-10-22T01:31:12.484Z,99424.25
2022-10-22T01:31:43.918Z,99430.31
2022-10-22T01:32:15.394Z,99424.03
2022-10-22T01:32:46.787Z,99419.06
2022-10-22T01:33:18.241Z,99420.69
2022-10-22T01:33:49.679Z,99429.41
2022-10-22T01:34:21.103Z,99418.78
2022-10-22T01:34:52.540Z,99423.59
2022-10-22T01:35:24.028Z,99422.31
2022-10-22T01:35:55.601Z,99422.59
2022-10-22T01:36:27.068Z,99420.69
2022-10-22T01:36:58.641Z,99414.91
2022-10-22T01:37:30.113Z,99416.84
2022-10-22T01:38:01.571Z,99423.72
2022-10-22T01:38:32.963Z,99417.44
2022-10-22T01:39:04.369Z,99418.09
2022-10-22T01:39:35.768Z,99423.72
2022-10-22T01:40:07.180Z,99424.19
2022-10-22T01:40:38.604Z,99419.38
2022-10-22T01:41:10.029Z,99429.19
2022-10-22T01:41:41.493Z,99420.69
2022-10-22T01:42:12.962Z,99426.19
2022-10-22T01:42:44.411Z,99416.03
2022-10-22T01:43:15.852Z,99414.22
2022-10-22T01:43:47.237Z,99418.56
2022-10-22T01:44:18.956Z,99415.53
2022-10-22T01:44:50.359Z,99410.03
2022-10-22T01:45:21.812Z,99414.41
2022-10-22T01:45:53.256Z,99409.25
2022-10-22T01:46:24.811Z,99400.22
2022-10-22T01:46:56.248Z,99399.41
2022-10-22T01:47:27.722Z,99403.91
2022-10-22T01:47:59.309Z,99401.66
2022-10-22T01:48:30.742Z,99405.53
2022-10-22T01:49:02.182Z,99402.47
2022-10-22T01:49:33.725Z,99402.16
2022-10-22T01:50:05.218Z,99407.63
2022-10-22T01:50:36.617Z,99407.31
2022-10-22T01:51:08.032Z,99403.75
2022-10-22T01:51:39.445Z,99406.50
2022-10-22T01:52:10.872Z,99401.34
2022-10-22T01:52:42.352Z,99403.75
2022-10-22T01:53:13.724Z,99402.16
2022-10-22T01:54:16.500Z,99398.59
2022-10-22T01:54:47.978Z,99399.91
2022-10-22T01:55:19.423Z,99397.00
2022-10-22T01:55:50.855Z,99406.66
2022-10-22T01:56:22.341Z,99396.50
2022-10-22T01:56:53.755Z,99401.81
2022-10-22T01:57:25.177Z,99400.53
2022-10-22T01:57:56.773Z,99403.75
2022-10-22T01:58:28.171Z,99400.53
2022-10-22T01:58:59.619Z,99398.59
2022-10-22T01:59:31.049Z,99393.44
2022-10-22T02:00:02.478Z,99401.03
2022-10-22T02:00:33.919Z,99385.56
2022-10-22T02:01:05.550Z,99394.56
2022-10-22T02:01:37.047Z,99393.78
2022-10-22T02:02:08.941Z,99396.34
2022-10-22T02:02:40.363Z,99386.19
2022-10-22T02:03:11.910Z,99396.34
2022-10-22T02:03:43.295Z,99395.22
2022-10-22T02:04:14.669Z,99388.63
2022-10-22T02:04:46.085Z,99391.03
2022-10-22T02:05:17.572Z,99387.97
2022-10-22T02:05:49.032Z,99380.91
2022-10-22T02:06:20.445Z,99385.06
2022-10-22T02:06:51.834Z,99381.22
2022-10-22T02:07:23.233Z,99381.03
2022-10-22T02:07:54.663Z,99382.97
2022-10-22T02:08:26.260Z,99384.28
2022-10-22T02:08:57.699Z,99392.16
2022-10-22T02:09:29.258Z,99392.66
2022-10-22T02:10:00.656Z,99385.06
2022-10-22T02:10:32.041Z,99391.66
2022-10-22T02:11:03.548Z,99388.13
2022-10-22T02:11:34.981Z,99388.63
2022-10-22T02:12:43.068Z,99388.63
2022-10-22T02:13:14.723Z,99385.41
2022-10-22T02:13:46.112Z,99382.16
2022-10-22T02:14:17.879Z,99384.59
2022-10-22T02:14:49.361Z,99382.66
2022-10-22T02:15:20.734Z,99386.38
2022-10-22T02:15:52.144Z,99385.06
2022-10-22T02:16:23.534Z,99384.75
2022-10-22T02:16:54.960Z,99391.34
2022-10-22T02:17:26.390Z,99383.16
2022-10-22T02:17:57.833Z,99391.66
2022-10-22T02:18:29.275Z,99389.25
2022-10-22T02:19:00.904Z,99392.47
2022-10-22T02:19:32.356Z,99399.56
2022-10-22T02:20:03.825Z,99387.81
2022-10-22T02:20:35.314Z,99388.44
2022-10-22T02:21:39.201Z,99391.19
2022-10-22T02:22:10.596Z,99393.13
2022-10-22T02:22:42.431Z,99392.47
2022-10-22T02:23:14.184Z,99393.91
2022-10-22T02:23:45.666Z,99399.06
2022-10-22T02:24:17.051Z,99402.63
2022-10-22T02:24:48.437Z,99389.88
2022-10-22T02:25:19.811Z,99398.09
2022-10-22T02:25:51.358Z,99393.13
2022-10-22T02:26:22.807Z,99401.31
2022-10-22T02:26:54.244Z,99394.41
2022-10-22T02:27:26.942Z,99392.47
2022-10-22T02:27:58.687Z,99389.56
2022-10-22T02:28:30.115Z,99395.22
2022-10-22T02:29:01.585Z,99394.09
2022-10-22T02:29:32.972Z,99396.50
2022-10-22T02:30:04.512Z,99396.50
2022-10-22T02:30:35.975Z,99402.78
2022-10-22T02:31:07.395Z,99409.56
2022-10-22T02:31:38.823Z,99410.50
2022-10-22T02:32:10.258Z,99410.66
2022-10-22T02:32:41.911Z,99412.28
2022-10-22T02:33:13.637Z,99410.03
2022-10-22T02:33:45.081Z,99408.09
2022-10-22T02:34:16.520Z,99408.72
2022-10-22T02:34:47.977Z,99406.47
2022-10-22T02:35:19.385Z,99404.88
2022-10-22T02:35:50.765Z,99406.47
2022-10-22T02:36:22.192Z,99410.03
2022-10-22T02:36:53.619Z,99406.78
2022-10-22T02:37:25.041Z,99406.47
2022-10-22T02:37:56.397Z,99408.72
2022-10-22T02:38:27.906Z,99406.31
2022-10-22T02:38:59.311Z,99404.38
2022-10-22T02:39:30.779Z,99411.78
2022-10-22T02:40:02.189Z,99413.41
2022-10-22T02:40:33.698Z,99412.59
2022-10-22T02:41:05.195Z,99410.66
2022-10-22T02:41:36.626Z,99405.69
2022-10-22T02:42:08.087Z,99401.97
2022-10-22T02:42:39.717Z,99404.69
2022-10-22T02:43:11.338Z,99400.03
2022-10-22T02:43:42.766Z,99412.44
2022-10-22T02:44:14.196Z,99401.81
2022-10-22T02:44:45.631Z,99410.34
2022-10-22T02:45:17.132Z,99410.34
2022-10-22T02:45:48.562Z,99417.25
2022-10-22T02:46:20.209Z,99412.28
2022-10-22T02:46:51.781Z,99407.91
2022-10-22T02:47:23.205Z,99414.19
2022-10-22T02:47:54.699Z,99415.50
2022-10-22T02:48:26.154Z,99415.19
2022-10-22T02:48:57.544Z,99410.81
2022-10-22T02:49:28.998Z,99406.66
2022-10-22T02:50:00.362Z,99408.59
2022-10-22T02:50:31.801Z,99403.44
2022-10-22T02:51:03.217Z,99406.16
2022-10-22T02:51:34.715Z,99410.34
2022-10-22T02:52:06.214Z,99408.72
2022-10-22T02:52:37.858Z,99415.97
2022-10-22T02:53:09.637Z,99411.16
2022-10-22T02:53:41.057Z,99410.03
2022-10-22T02:54:12.496Z,99421.78
2022-10-22T02:54:43.925Z,99417.75
2022-10-22T02:55:15.360Z,99423.22
2022-10-22T02:55:46.770Z,99416.94
2022-10-22T02:56:18.212Z,99418.53
2022-10-22T02:56:49.697Z,99412.75
2022-10-22T02:57:57.383Z,99407.13
2022-10-22T02:58:28.797Z,99410.03
2022-10-22T02:59:00.158Z,99406.97
2022-10-22T02:59:31.594Z,99412.13
2022-10-22T03:00:03.021Z,99420.97
2022-10-22T03:00:34.463Z,99416.63
2022-10-22T03:01:05.956Z,99420.34
2022-10-22T03:01:37.480Z,99416.78
2022-10-22T03:02:09.521Z,99420.78
2022-10-22T03:02:41.033Z,99422.09
2022-10-22T03:03:12.454Z,99420.47
2022-10-22T03:03:43.864Z,99415.97
2022-10-22T03:04:15.339Z,99419.84
2022-10-22T03:04:46.787Z,99418.22
2022-10-22T03:05:18.183Z,99408.59
2022-10-22T03:05:49.615Z,99412.94
2022-10-22T03:06:21.012Z,99413.25
2022-10-22T03:06:52.489Z,99410.16
2022-10-22T03:07:23.953Z,99410.81
2022-10-22T03:07:55.389Z,99415.81
2022-10-22T03:08:26.889Z,99412.75
2022-10-22T03:08:58.322Z,99412.59
2022-10-22T03:09:29.774Z,99411.59
2022-10-22T03:10:01.213Z,99414.66
2022-10-22T03:10:32.657Z,99414.66
2022-10-22T03:11:04.080Z,99415.16
2022-10-22T03:11:35.533Z,99415.78
2022-10-22T03:12:06.986Z,99413.84
2022-10-22T03:12:38.512Z,99409.19
2022-10-22T03:13:09.967Z,99413.03
2022-10-22T03:13:41.382Z,99404.03
2022-10-22T03:14:12.878Z,99408.69
2022-10-22T03:14:44.383Z,99400.97
2022-10-22T03:15:15.855Z,99406.78
2022-10-22T03:15:47.319Z,99407.09
2022-10-22T03:16:18.715Z,99405.50
2022-10-22T03:16:50.119Z,99408.06
2022-10-22T03:17:21.534Z,99414.34
2022-10-22T03:17:53.035Z,99414.84
2022-10-22T03:18:24.414Z,99418.06
2022-10-22T03:18:55.851Z,99420.47
2022-10-22T03:19:27.315Z,99424.97
2022-10-22T03:19:58.743Z,99420.00
2022-10-22T03:20:30.159Z,99423.53
2022-10-22T03:21:01.609Z,99426.59
2022-10-22T03:21:33.167Z,99434.31
2022-10-22T03:22:04.599Z,99424.97
2022-10-22T03:22:36.051Z,99424.97
2022-10-22T03:23:07.627Z,99423.34
2022-10-22T03:23:39.083Z,99429.47
2022-10-22T03:24:10.534Z,99423.19
2022-10-22T03:24:41.896Z,99419.31
2022-10-22T03:25:13.330Z,99424.81
2022-10-22T03:25:44.742Z,99426.25
2022-10-22T03:26:16.115Z,99431.06
2022-10-22T03:26:47.523Z,99426.59
2022-10-22T03:27:18.939Z,99427.72
2022-10-22T03:27:50.442Z,99438.03
2022-10-22T03:28:21.879Z,99435.28
2022-10-22T03:28:53.307Z,99432.06
2022-10-22T03:29:24.787Z,99432.06
2022-10-22T03:29:56.146Z,99429.31
2022-10-22T03:30:27.657Z,99429.81
2022-10-22T03:30:59.070Z,99438.50
2022-10-22T03:31:30.465Z,99431.44
2022-10-22T03:32:01.914Z,99432.53
2022-10-22T03:32:33.313Z,99436.09
2022-10-22T03:33:04.742Z,99424.34
2022-10-22T03:33:36.218Z,99434.16
2022-10-22T03:34:07.639Z,99438.34
2022-10-22T03:34:39.064Z,99430.44
2022-10-22T03:35:10.515Z,99437.53
2022-10-22T03:35:41.996Z,99429.00
2022-10-22T03:36:13.408Z,99432.06
2022-10-22T03:36:44.802Z,99431.88
2022-10-22T03:37:16.262Z,99434.63
2022-10-22T03:37:47.744Z,99428.84
2022-10-22T03:38:19.225Z,99425.78
2022-10-22T03:38:50.673Z,99428.03
2022-10-22T03:39:22.127Z,99429.31
2022-10-22T03:39:53.540Z,99426.59
2022-10-22T03:40:24.956Z,99430.44
2022-10-22T03:40:56.407Z,99427.41
2022-10-22T03:41:27.807Z,99427.72
2022-10-22T03:41:59.226Z,99429.81
2022-10-22T03:42:30.652Z,99429.81
2022-10-22T03:43:02.055Z,99435.91
2022-10-22T03:43:33.546Z,99435.44
2022-10-22T03:44:05.056Z,99443.00
2022-10-22T03:44:36.482Z,99438.66
2022-10-22T03:45:07.860Z,99442.50
2022-10-22T03:45:39.340Z,99437.34
2022-10-22T03:46:10.748Z,99439.47
2022-10-22T03:46:42.197Z,99433.50
2022-10-22T03:47:13.622Z,99432.06
2022-10-22T03:47:45.039Z,99431.88
2022-10-22T03:48:16.441Z,99432.06
2022-10-22T03:48:47.886Z,99430.44
2022-10-22T03:49:19.341Z,99433.66
2022-10-22T03:49:50.819Z,99436.72
2022-10-22T03:50:22.210Z,99436.22
2022-10-22T03:50:53.599Z,99435.59
2022-10-22T03:51:24.989Z,99429.63
2022-10-22T03:51:56.383Z,99431.88
2022-10-22T03:52:27.802Z,99434.78
2022-10-22T03:52:59.280Z,99429.00
2022-10-22T03:53:30.662Z,99440.75
2022-10-22T03:54:02.143Z,99434.47
2022-10-22T03:54:33.745Z,99434.78
2022-10-22T03:55:05.229Z,99435.91
2022-10-22T03:55:36.650Z,99435.44
2022-10-22T03:56:08.079Z,99434.47
2022-10-22T03:56:39.602Z,99437.53
2022-10-22T03:57:11.059Z,99433.19
2022-10-22T03:57:42.678Z,99437.53
2022-10-22T03:58:14.311Z,99443.31
2022-10-22T03:58:45.721Z,99440.41
2022-10-22T03:59:17.172Z,99442.50
2022-10-22T03:59:48.696Z,99441.88
2022-10-22T04:00:20.124Z,99442.19
2022-10-22T04:00:51.711Z,99438.66
2022-10-22T04:01:23.186Z,99442.50
2022-10-22T04:01:54.657Z,99442.50
2022-10-22T04:02:26.078Z,99438.97
2022-10-22T04:02:57.521Z,99437.53
2022-10-22T04:03:28.983Z,99439.78
2022-10-22T04:04:00.410Z,99437.03
2022-10-22T04:04:31.822Z,99443.50
2022-10-22T04:05:03.387Z,99440.91
2022-10-22T04:05:34.890Z,99440.09
2022-10-22T04:06:06.323Z,99437.34
2022-10-22T04:06:37.786Z,99451.34
2022-10-22T04:07:09.226Z,99438.66
2022-10-22T04:07:40.807Z,99446.06
2022-10-22T04:08:12.497Z,99448.47
2022-10-22T04:08:44.013Z,99447.50
2022-10-22T04:09:15.483Z,99440.59
2022-10-22T04:09:46.989Z,99439.47
2022-10-22T04:10:18.390Z,99438.97
2022-10-22T04:10:49.797Z,99447.81
2022-10-22T04:11:21.303Z,99440.91
2022-10-22T04:11:52.779Z,99442.50
2022-10-22T04:12:24.212Z,99441.22
2022-10-22T04:12:55.641Z,99437.84
2022-10-22T04:13:27.028Z,99435.44
2022-10-22T04:13:58.421Z,99438.97
2022-10-22T04:14:29.867Z,99441.38
2022-10-22T04:15:01.312Z,99439.13
2022-10-22T04:15:32.792Z,99445.41
2022-10-22T04:16:04.330Z,99447.03
2022-10-22T04:16:35.718Z,99442.38
2022-10-22T04:17:07.115Z,99442.50
2022-10-22T04:17:38.781Z,99450.09
2022-10-22T04:18:10.523Z,99449.09
2022-10-22T04:18:41.930Z,99452.34
2022-10-22T04:19:13.354Z,99445.25
2022-10-22T04:19:44.711Z,99449.28
2022-10-22T04:20:16.127Z,99448.47
2022-10-22T04:20:47.578Z,99452.00
2022-10-22T04:21:19.058Z,99456.69
2022-10-22T04:21:50.521Z,99466.00
2022-10-22T04:22:21.955Z,99460.84
2022-10-22T04:22:53.433Z,99455.38
2022-10-22T04:23:24.806Z,99457.00
2022-10-22T04:23:56.215Z,99461.66
2022-10-22T04:24:27.644Z,99465.53
2022-10-22T04:24:59.098Z,99459.25
2022-10-22T04:25:30.520Z,99466.66
2022-10-22T04:26:02.126Z,99462.47
2022-10-22T04:26:33.611Z,99467.31
2022-10-22T04:27:05.057Z,99463.44
2022-10-22T04:27:36.484Z,99455.56
2022-10-22T04:28:07.939Z,99462.16
2022-10-22T04:28:39.362Z,99468.13
2022-10-22T04:29:13.574Z,99467.63
2022-10-22T04:29:47.466Z,99463.59
2022-10-22T04:30:18.891Z,99470.69
2022-10-22T04:30:50.327Z,99467.63
2022-10-22T04:31:21.841Z,99470.03
2022-10-22T04:31:53.363Z,99466.31
2022-10-22T04:32:24.778Z,99469.38
2022-10-22T04:32:56.273Z,99471.63
2022-10-22T04:33:27.614Z,99464.22
2022-10-22T04:33:59.046Z,99467.78
2022-10-22T04:34:30.437Z,99458.44
2022-10-22T04:35:01.838Z,99467.28
2022-10-22T04:35:33.219Z,99475.16
2022-10-22T04:36:04.609Z,99463.09
2022-10-22T04:36:36.030Z,99474.84
2022-10-22T04:37:07.502Z,99461.81
2022-10-22T04:37:39.332Z,99461.81
2022-10-22T04:38:10.970Z,99465.34
2022-10-22T04:38:42.387Z,99469.38
2022-10-22T04:39:13.801Z,99466.97
2022-10-22T04:39:45.266Z,99467.91
2022-10-22T04:40:16.716Z,99467.44
2022-10-22T04:40:48.112Z,99467.28
2022-10-22T04:41:19.544Z,99467.41
2022-10-22T04:41:51.015Z,99465.66
2022-10-22T04:42:22.387Z,99460.50
2022-10-22T04:42:53.831Z,99467.28
2022-10-22T04:43:25.259Z,99463.72
2022-10-22T04:43:56.797Z,99467.09
2022-10-22T04:44:28.573Z,99462.44
2022-10-22T04:45:00.090Z,99464.53
2022-10-22T04:45:31.515Z,99462.94
2022-10-22T04:46:02.940Z,99472.75
2022-10-22T04:46:34.366Z,99464.84
2022-10-22T04:47:05.828Z,99468.41
2022-10-22T04:47:37.357Z,99461.97
2022-10-22T04:48:09.050Z,99463.09
2022-10-22T04:48:40.476Z,99469.38
2022-10-22T04:49:12.046Z,99465.34
2022-10-22T04:49:43.440Z,99467.91
2022-10-22T04:50:14.844Z,99473.06
2022-10-22T04:50:46.200Z,99465.16
2022-10-22T04:51:17.646Z,99465.16
2022-10-22T04:51:49.135Z,99467.91
2022-10-22T04:52:20.674Z,99462.94
2022-10-22T04:52:52.115Z,99469.19
2022-10-22T04:53:23.511Z,99467.91
2022-10-22T04:53:54.882Z,99461.94
2022-10-22T04:54:29.048Z,99462.75
2022-10-22T04:55:03.627Z,99464.38
2022-10-22T04:55:35.048Z,99461.94
2022-10-22T04:56:06.552Z,99464.84
2022-10-22T04:56:37.969Z,99470.47
2022-10-22T04:57:09.492Z,99465.50
2022-10-22T04:57:41.256Z,99475.00
2022-10-22T04:58:12.895Z,99473.25
2022-10-22T04:58:44.285Z,99461.81
2022-10-22T04:59:15.721Z,99468.72
2022-10-22T04:59:47.193Z,99469.19
2022-10-22T05:00:18.627Z,99467.44
2022-10-22T05:00:50.078Z,99473.38
2022-10-22T05:01:21.564Z,99468.88
2022-10-22T05:01:53.060Z,99468.41
2022-10-22T05:02:24.560Z,99465.16
2022-10-22T05:02:56.047Z,99464.69
2022-10-22T05:03:27.491Z,99470.66
2022-10-22T05:03:58.953Z,99470.00
2022-10-22T05:04:30.403Z,99476.28
2022-10-22T05:05:01.878Z,99476.91
2022-10-22T05:05:33.298Z,99475.81
2022-10-22T05:06:04.769Z,99470.81
2022-10-22T05:06:36.197Z,99475.47
2022-10-22T05:07:07.617Z,99472.94
2022-10-22T05:07:39.368Z,99476.47
2022-10-22T05:08:11.014Z,99474.03
2022-10-22T05:08:42.482Z,99476.59
2022-10-22T05:09:14.011Z,99476.13
2022-10-22T05:09:45.517Z,99472.75
2022-10-22T05:10:16.933Z,99477.09
2022-10-22T05:10:48.358Z,99472.44
2022-10-22T05:11:19.822Z,99474.34
2022-10-22T05:11:51.240Z,99475.34
2022-10-22T05:12:22.688Z,99476.47
2022-10-22T05:12:54.112Z,99480.00
2022-10-22T05:13:25.655Z,99488.84
2022-10-22T05:13:57.117Z,99484.19
2022-10-22T05:14:28.664Z,99480.97
2022-10-22T05:15:00.058Z,99483.56
2022-10-22T05:15:31.546Z,99480.31
2022-10-22T05:16:02.986Z,99475.66
2022-10-22T05:16:34.432Z,99482.25
2022-10-22T05:17:05.952Z,99476.97
2022-10-22T05:17:37.567Z,99479.50
2022-10-22T05:18:09.089Z,99474.84
2022-10-22T05:18:40.639Z,99476.59
2022-10-22T05:19:12.049Z,99479.50
2022-10-22T05:19:43.409Z,99481.94
2022-10-22T05:20:14.772Z,99488.03
2022-10-22T05:20:46.174Z,99477.59
2022-10-22T05:21:17.630Z,99483.38
2022-10-22T05:21:49.097Z,99476.78
2022-10-22T05:22:20.504Z,99481.28
2022-10-22T05:22:51.952Z,99481.44
2022-10-22T05:23:23.351Z,99487.88
2022-10-22T05:23:54.811Z,99479.66
2022-10-22T05:24:26.319Z,99478.22
2022-10-22T05:24:57.791Z,99484.00
2022-10-22T05:25:29.250Z,99482.88
2022-10-22T05:26:00.679Z,99488.03
2022-10-22T05:26:32.163Z,99482.56
2022-10-22T05:27:03.565Z,99484.00
2022-10-22T05:27:34.996Z,99480.31
2022-10-22T05:28:06.416Z,99480.81
2022-10-22T05:28:37.830Z,99490.78
2022-10-22T05:29:09.364Z,99480.97
2022-10-22T05:29:40.795Z,99484.19
2022-10-22T05:30:12.277Z,99488.84
2022-10-22T05:30:43.700Z,99478.84
2022-10-22T05:31:15.109Z,99485.00
2022-10-22T05:31:46.611Z,99491.91
2022-10-22T05:32:17.981Z,99489.47
2022-10-22T05:32:49.400Z,99490.91
2022-10-22T05:33:23.999Z,99494.78
2022-10-22T05:33:55.679Z,99498.00
2022-10-22T05:34:27.159Z,99492.34
2022-10-22T05:34:58.611Z,99493.66
2022-10-22T05:35:30.094Z,99494.63
2022-10-22T05:36:01.511Z,99502.03
2022-10-22T05:36:32.889Z,99495.25
2022-10-22T05:37:04.318Z,99490.91
2022-10-22T05:37:35.754Z,99491.72
2022-10-22T05:38:07.183Z,99496.38
2022-10-22T05:38:38.597Z,99487.88
2022-10-22T05:39:10.058Z,99487.06
2022-10-22T05:39:41.552Z,99493.03
2022-10-22T05:40:26.486Z,99486.25
2022-10-22T05:41:01.716Z,99496.69
2022-10-22T05:41:33.214Z,99490.41
2022-10-22T05:42:04.742Z,99490.91
2022-10-22T05:42:36.287Z,99495.25
2022-10-22T05:43:07.707Z,99496.38
2022-10-22T05:43:39.173Z,99494.28
2022-10-22T05:44:10.566Z,99494.78
2022-10-22T05:44:42.104Z,99498.19
2022-10-22T05:45:13.580Z,99498.00
2022-10-22T05:45:45.119Z,99491.91
2022-10-22T05:46:21.249Z,99498.81
2022-10-22T05:46:53.821Z,99508.81
2022-10-22T05:47:25.265Z,99512.34
2022-10-22T05:47:56.643Z,99507.81
2022-10-22T05:48:28.103Z,99511.69
2022-10-22T05:48:59.533Z,99507.31
2022-10-22T05:49:30.891Z,99512.16
2022-10-22T05:50:02.405Z,99508.13
2022-10-22T05:50:33.820Z,99505.88
2022-10-22T05:51:05.209Z,99511.84
2022-10-22T05:51:36.723Z,99512.16
2022-10-22T05:52:08.073Z,99508.94
2022-10-22T05:52:39.651Z,99507.00
2022-10-22T05:53:11.240Z,99511.69
2022-10-22T05:53:42.723Z,99508.94
2022-10-22T05:54:14.152Z,99518.75
2022-10-22T05:54:45.563Z,99519.25
2022-10-22T05:55:16.983Z,99513.59
2022-10-22T05:55:48.414Z,99519.56
2022-10-22T05:56:19.810Z,99519.06
2022-10-22T05:56:51.242Z,99516.16
2022-10-22T05:57:22.642Z,99519.06
2022-10-22T05:57:54.017Z,99521.19
2022-10-22T05:58:25.448Z,99525.66
2022-10-22T05:58:56.986Z,99518.28
2022-10-22T05:59:28.431Z,99528.59
2022-10-22T05:59:59.875Z,99529.22
2022-10-22T06:00:31.365Z,99529.22
2022-10-22T06:01:02.757Z,99523.13
2022-10-22T06:01:34.207Z,99524.56
2022-10-22T06:02:05.656Z,99526.34
2022-10-22T06:02:37.179Z,99527.28
2022-10-22T06:03:08.678Z,99531.63
2022-10-22T06:03:40.199Z,99526.84
2022-10-22T06:04:11.651Z,99527.78
2022-10-22T06:04:43.058Z,99530.81
2022-10-22T06:05:14.465Z,99528.59
2022-10-22T06:05:45.970Z,99528.59
2022-10-22T06:06:17.389Z,99527.59
2022-10-22T06:06:48.836Z,99533.56
2022-10-22T06:07:20.234Z,99529.22
2022-10-22T06:07:51.650Z,99527.78
2022-10-22T06:08:23.059Z,99534.06
2022-10-22T06:08:54.540Z,99525.84
2022-10-22T06:09:26.027Z,99525.97
2022-10-22T06:09:57.474Z,99528.91
2022-10-22T06:10:28.976Z,99526.66
2022-10-22T06:11:00.474Z,99534.88
2022-10-22T06:11:34.315Z,99522.81
2022-10-22T06:12:06.802Z,99530.81
2022-10-22T06:12:38.500Z,99525.34
2022-10-22T06:13:10.102Z,99530.34